Time;durP1;ratioP1;P1;durP2;ratioP2;P2;SDS_P1;SDS_P2;PMS_P1;PMS_P2;Temp;Humidity;BMP_temperature;BMP_pressure;BME280_temperature;BME280_humidity;BME280_pressure;Samples;Min_cycle;Max_cycle;Signal;HPM_P1;HPM_P2
2022/09/05 03:02:29;;;;;;;2.50;1.10;;;13.80;99.90;;;;;;5040195;27;20626;-73
2022/09/05 03:05:23;;;;;;;1.67;1.20;;;13.40;99.90;;;;;;5049244;28;20252;-73
2022/09/05 03:08:23;;;;;;;3.08;1.23;;;13.40;99.90;;;;;;5045775;28;20225;-73
2022/09/05 03:11:41;;;;;;;3.40;1.30;;;13.30;99.90;;;;;;5032339;28;20216;-74
2022/09/05 03:15:08;;;;;;;2.17;1.10;;;13.30;99.90;;;;;;5054445;28;20228;-83
2022/09/05 03:18:47;;;;;;;2.88;1.00;;;13.30;99.90;;;;;;5058783;28;21551;-83
2022/09/05 03:22:03;;;;;;;1.45;1.10;;;13.30;99.90;;;;;;5029955;28;20221;-83
2022/09/05 03:25:47;;;;;;;1.80;1.10;;;13.30;99.90;;;;;;5037464;28;20224;-83
2022/09/05 03:29:16;;;;;;;3.58;1.20;;;13.20;99.90;;;;;;5032019;28;20221;-73
2022/09/05 03:32:32;;;;;;;1.42;1.30;;;13.10;99.90;;;;;;5032232;28;20239;-73
2022/09/05 03:36:18;;;;;;;2.22;1.42;;;13.10;99.90;;;;;;5028859;28;20231;-83
2022/09/05 03:39:46;;;;;;;3.72;1.40;;;13.00;99.90;;;;;;5042057;28;20228;-84
2022/09/05 03:42:56;;;;;;;1.50;1.25;;;13.00;99.90;;;;;;5045302;28;20226;-83
2022/09/05 03:46:03;;;;;;;3.40;1.27;;;13.00;99.90;;;;;;5051042;28;20231;-73
2022/09/05 03:49:15;;;;;;;1.77;1.40;;;12.90;99.90;;;;;;5047303;27;20305;-73
2022/09/05 03:52:36;;;;;;;5.80;1.30;;;12.90;99.90;;;;;;5037219;28;20331;-73
2022/09/05 03:56:01;;;;;;;2.55;1.23;;;13.00;99.90;;;;;;5053920;28;20307;-73
2022/09/05 03:59:51;;;;;;;3.78;1.25;;;13.00;99.90;;;;;;5076546;28;20235;-73
2022/09/05 04:02:49;;;;;;;1.67;1.13;;;12.90;99.90;;;;;;5040841;28;20234;-73
2022/09/05 04:06:07;;;;;;;1.98;1.38;;;12.90;99.90;;;;;;5058911;28;20217;-73
2022/09/05 04:09:22;;;;;;;4.35;1.27;;;12.90;99.90;;;;;;5087746;28;20880;-72
2022/09/05 04:12:37;;;;;;;2.25;1.20;;;12.80;99.90;;;;;;5084871;27;20383;-73
2022/09/05 04:15:38;;;;;;;2.22;1.30;;;12.80;99.90;;;;;;5052397;28;20706;-84
2022/09/05 04:18:33;;;;;;;3.63;1.40;;;12.80;99.90;;;;;;5058855;28;20231;-83
2022/09/05 04:21:27;;;;;;;3.25;1.23;;;12.80;99.90;;;;;;5059960;28;20217;-73
2022/09/05 04:24:27;;;;;;;4.93;1.30;;;12.90;99.90;;;;;;5050288;28;20225;-83
2022/09/05 04:27:32;;;;;;;2.53;1.40;;;13.00;99.90;;;;;;5049868;28;20221;-84
2022/09/05 04:30:34;;;;;;;3.95;1.10;;;12.90;99.90;;;;;;5057344;28;20303;-73
2022/09/05 04:33:32;;;;;;;1.65;1.20;;;13.00;99.90;;;;;;5055051;28;20687;-73
2022/09/05 04:36:28;;;;;;;3.85;1.40;;;13.00;99.90;;;;;;5064430;28;20311;-73
2022/09/05 04:39:28;;;;;;;4.20;1.27;;;13.00;99.90;;;;;;5090265;27;20620;-73
2022/09/05 04:42:22;;;;;;;5.93;2.03;;;13.10;99.90;;;;;;5064297;28;20220;-73
2022/09/05 04:45:14;;;;;;;2.08;1.30;;;13.20;99.90;;;;;;5059715;28;20223;-73
2022/09/05 04:48:16;;;;;;;4.10;1.35;;;13.10;99.90;;;;;;5093050;27;20270;-72
2022/09/05 04:51:20;;;;;;;2.90;1.40;;;13.10;99.90;;;;;;5081967;28;20216;-73
2022/09/05 04:54:28;;;;;;;3.13;1.30;;;13.10;99.90;;;;;;5079085;28;20223;-73
2022/09/05 04:57:23;;;;;;;2.30;1.42;;;13.20;99.90;;;;;;5081037;28;20346;-72
2022/09/05 05:00:15;;;;;;;3.85;1.38;;;13.30;99.90;;;;;;5080269;27;20223;-84
2022/09/05 05:03:27;;;;;;;2.08;1.50;;;13.30;99.90;;;;;;5104362;27;20238;-84
2022/09/05 05:06:40;;;;;;;3.00;1.23;;;13.40;99.90;;;;;;5104087;27;20228;-84
2022/09/05 05:09:43;;;;;;;3.58;1.20;;;13.40;99.90;;;;;;5080183;28;20232;-84
2022/09/05 05:12:52;;;;;;;4.38;1.30;;;13.50;99.90;;;;;;5075932;28;20220;-84
2022/09/05 05:16:05;;;;;;;3.45;1.33;;;13.50;99.90;;;;;;5082157;28;20349;-83
2022/09/05 05:19:18;;;;;;;5.20;1.30;;;13.40;99.90;;;;;;5091293;28;20416;-83
2022/09/05 05:22:14;;;;;;;3.95;1.40;;;13.50;99.90;;;;;;5079109;28;20231;-83
2022/09/05 05:25:11;;;;;;;1.92;1.40;;;13.60;99.90;;;;;;5071912;28;20227;-82
2022/09/05 05:28:10;;;;;;;4.45;1.52;;;13.60;99.90;;;;;;5079641;28;20212;-83
2022/09/05 05:31:15;;;;;;;2.58;1.23;;;13.80;99.90;;;;;;5082548;28;20318;-83
2022/09/05 05:34:13;;;;;;;2.83;1.30;;;13.80;99.90;;;;;;5079471;28;20247;-84
2022/09/05 05:37:19;;;;;;;7.00;1.30;;;14.00;99.90;;;;;;5079697;28;20222;-84
2022/09/05 05:40:19;;;;;;;2.47;1.50;;;13.90;99.90;;;;;;5079033;28;20227;-82
2022/09/05 05:43:15;;;;;;;6.03;1.20;;;14.00;99.90;;;;;;5077272;28;20228;-79
2022/09/05 05:46:04;;;;;;;4.15;1.27;;;14.20;99.90;;;;;;5075536;28;20223;-83
2022/09/05 05:49:08;;;;;;;1.83;1.20;;;14.20;99.90;;;;;;5077542;28;20259;-82
2022/09/05 05:52:15;;;;;;;2.10;1.38;;;14.30;99.90;;;;;;5076678;27;20207;-83
2022/09/05 05:55:10;;;;;;;3.58;1.67;;;14.30;99.90;;;;;;5078009;28;20268;-80
2022/09/05 05:58:43;;;;;;;2.80;1.10;;;14.40;99.90;;;;;;5081824;28;20219;-82
2022/09/05 06:02:19;;;;;;;8.60;1.52;;;14.40;99.90;;;;;;5078081;28;20246;-83
2022/09/05 06:05:22;;;;;;;3.33;1.13;;;14.50;99.90;;;;;;5075585;28;20245;-85
2022/09/05 06:08:48;;;;;;;3.10;1.33;;;14.60;99.90;;;;;;5102739;27;20231;-87
2022/09/05 06:12:16;;;;;;;2.92;1.05;;;14.80;99.90;;;;;;5067614;28;20215;-87
2022/09/05 06:15:56;;;;;;;2.42;1.35;;;14.90;99.90;;;;;;5076386;28;20216;-88
2022/09/05 06:19:27;;;;;;;5.18;1.33;;;15.30;99.90;;;;;;5088618;28;20274;-76
2022/09/05 06:23:12;;;;;;;3.08;1.42;;;16.20;99.90;;;;;;5075890;28;20220;-75
2022/09/05 06:27:11;;;;;;;3.88;1.17;;;16.30;97.80;;;;;;5102086;27;20788;-76
2022/09/05 06:30:05;;;;;;;5.07;1.30;;;16.20;97.80;;;;;;5085818;28;20216;-75
2022/09/05 06:33:10;;;;;;;3.20;1.25;;;16.00;97.90;;;;;;5076724;28;20223;-74
2022/09/05 06:36:15;;;;;;;4.70;1.55;;;15.80;99.10;;;;;;5079074;28;20230;-74
2022/09/05 06:39:12;;;;;;;4.22;1.30;;;15.80;98.80;;;;;;5074422;28;20223;-74
2022/09/05 06:42:17;;;;;;;7.13;1.40;;;15.80;99.20;;;;;;5072418;28;20235;-74
2022/09/05 06:45:37;;;;;;;5.18;1.20;;;15.90;98.20;;;;;;5074294;28;20689;-74
2022/09/05 06:48:31;;;;;;;2.92;1.20;;;15.90;98.60;;;;;;5100579;27;20249;-74
2022/09/05 06:52:05;;;;;;;3.20;1.02;;;16.00;97.90;;;;;;5075249;28;20784;-74
2022/09/05 06:55:49;;;;;;;5.07;1.75;;;16.00;98.70;;;;;;5077213;28;20254;-86
2022/09/05 06:59:34;;;;;;;4.35;1.23;;;16.30;97.80;;;;;;5072713;28;20216;-75
2022/09/05 07:02:33;;;;;;;3.15;1.25;;;16.60;97.90;;;;;;5077352;28;20219;-75
2022/09/05 07:05:50;;;;;;;9.10;1.67;;;16.70;97.40;;;;;;5085802;28;22066;-74
2022/09/05 07:08:52;;;;;;;4.38;1.25;;;17.00;96.00;;;;;;5072990;28;20219;-74
2022/09/05 07:11:48;;;;;;;6.53;1.13;;;17.20;95.10;;;;;;5091359;28;20792;-86
2022/09/05 07:14:46;;;;;;;9.00;1.30;;;17.40;94.80;;;;;;5080331;28;20222;-86
2022/09/05 07:17:43;;;;;;;1.73;1.08;;;17.60;94.10;;;;;;5077398;28;20249;-86
2022/09/05 07:20:57;;;;;;;2.42;1.05;;;17.40;92.20;;;;;;5083041;28;20223;-86
2022/09/05 07:24:09;;;;;;;3.60;1.10;;;17.60;93.70;;;;;;5089643;28;20305;-86
2022/09/05 07:27:00;;;;;;;3.42;0.90;;;17.80;93.20;;;;;;5086583;28;20302;-87
2022/09/05 07:29:49;;;;;;;3.78;1.00;;;18.10;92.50;;;;;;5091288;28;20223;-84
2022/09/05 07:32:51;;;;;;;2.55;1.20;;;18.10;90.80;;;;;;5105600;28;20231;-87
2022/09/05 07:35:40;;;;;;;2.53;0.90;;;18.00;90.70;;;;;;5086678;28;20598;-74
2022/09/05 07:38:33;;;;;;;3.90;1.13;;;18.00;91.30;;;;;;5069705;28;20706;-74
2022/09/05 07:41:43;;;;;;;3.78;1.40;;;18.30;91.00;;;;;;5071965;28;20258;-87
2022/09/05 07:44:35;;;;;;;2.03;1.10;;;18.60;89.00;;;;;;5086641;28;20232;-85
2022/09/05 07:47:28;;;;;;;2.47;1.00;;;18.80;86.50;;;;;;5070665;28;20705;-87
2022/09/05 07:50:18;;;;;;;3.75;1.35;;;19.00;87.10;;;;;;5092962;28;20222;-85
2022/09/05 07:53:27;;;;;;;2.42;1.10;;;19.20;84.00;;;;;;5075492;28;20223;-85
2022/09/05 07:56:44;;;;;;;1.77;0.82;;;19.40;83.90;;;;;;5081681;28;20258;-86
2022/09/05 07:59:55;;;;;;;1.27;0.98;;;19.80;82.30;;;;;;5097994;27;20220;-86
2022/09/05 08:02:45;;;;;;;3.63;1.20;;;20.10;79.70;;;;;;5084616;28;20227;-86
2022/09/05 08:05:43;;;;;;;3.17;0.90;;;20.00;79.20;;;;;;5078895;28;20234;-85
2022/09/05 08:08:49;;;;;;;5.43;0.90;;;20.10;77.70;;;;;;5079936;28;20218;-81
2022/09/05 08:12:02;;;;;;;3.92;0.93;;;20.40;78.10;;;;;;5076421;28;20224;-81
2022/09/05 08:15:06;;;;;;;2.15;0.90;;;20.90;73.60;;;;;;5073899;28;20219;-76
2022/09/05 08:18:10;;;;;;;0.85;0.70;;;21.30;72.80;;;;;;5072993;28;20644;-77
2022/09/05 08:21:03;;;;;;;1.75;0.63;;;21.20;69.60;;;;;;5087849;28;20230;-82
2022/09/05 08:23:57;;;;;;;3.15;0.90;;;21.80;69.00;;;;;;5078982;28;20243;-82
2022/09/05 08:26:50;;;;;;;1.25;0.80;;;22.20;66.10;;;;;;5078139;27;20231;-81
2022/09/05 08:29:43;;;;;;;1.35;0.75;;;22.60;63.50;;;;;;5105310;27;20216;-81
2022/09/05 08:32:39;;;;;;;0.98;0.70;;;22.70;63.50;;;;;;5071698;28;20614;-81
2022/09/05 08:35:37;;;;;;;3.13;1.60;;;22.80;64.10;;;;;;5080617;28;20214;-81
2022/09/05 08:38:27;;;;;;;2.70;0.90;;;23.40;61.80;;;;;;5074019;28;20222;-82
2022/09/05 08:41:34;;;;;;;2.25;0.77;;;23.50;62.90;;;;;;5077918;28;20302;-79
2022/09/05 08:44:50;;;;;;;3.08;0.80;;;23.50;60.20;;;;;;5073128;28;20259;-77
2022/09/05 08:48:12;;;;;;;1.52;0.85;;;23.10;61.40;;;;;;5077632;28;20223;-77
2022/09/05 08:51:31;;;;;;;2.17;0.90;;;23.40;59.70;;;;;;5077220;27;20219;-80
2022/09/05 08:54:29;;;;;;;4.38;0.88;;;23.60;58.50;;;;;;5075797;28;20606;-74
2022/09/05 08:57:26;;;;;;;1.83;0.98;;;23.30;58.40;;;;;;5076658;28;20216;-81
2022/09/05 09:00:17;;;;;;;1.67;1.00;;;24.40;58.60;;;;;;5077897;28;20236;-77
2022/09/05 09:03:19;;;;;;;1.60;0.82;;;24.00;57.00;;;;;;5092794;27;20647;-76
2022/09/05 09:06:19;;;;;;;2.10;0.90;;;24.00;58.10;;;;;;5078590;28;20227;-78
2022/09/05 09:09:15;;;;;;;4.55;1.00;;;23.60;58.70;;;;;;5077676;28;20262;-76
2022/09/05 09:12:13;;;;;;;4.15;0.70;;;23.80;59.00;;;;;;5076852;28;20235;-76
2022/09/05 09:15:10;;;;;;;1.63;0.80;;;24.50;59.00;;;;;;5076230;28;20227;-74
2022/09/05 09:18:00;;;;;;;2.72;1.10;;;24.10;59.40;;;;;;5095705;27;20215;-81
2022/09/05 09:21:00;;;;;;;1.10;0.80;;;22.90;58.70;;;;;;5121013;27;20226;-75
2022/09/05 09:23:52;;;;;;;2.50;0.80;;;21.80;61.80;;;;;;5094507;28;20730;-80
2022/09/05 09:26:50;;;;;;;2.22;1.20;;;21.10;64.50;;;;;;5079794;28;20218;-80
2022/09/05 09:29:43;;;;;;;2.83;0.80;;;20.90;64.40;;;;;;5077926;28;20227;-73
2022/09/05 09:32:42;;;;;;;0.80;0.60;;;20.40;64.60;;;;;;5076034;28;20728;-73
2022/09/05 09:35:45;;;;;;;1.20;0.75;;;20.00;64.70;;;;;;5080625;28;20219;-80
2022/09/05 09:38:45;;;;;;;3.03;0.85;;;20.00;65.60;;;;;;5106317;27;20218;-78
2022/09/05 09:41:51;;;;;;;3.63;0.80;;;20.40;68.40;;;;;;5078478;27;20224;-78
2022/09/05 09:45:10;;;;;;;1.17;0.70;;;20.20;65.90;;;;;;5079970;28;20584;-79
2022/09/05 09:48:50;;;;;;;4.63;0.90;;;20.00;67.50;;;;;;5104095;27;20230;-72
2022/09/05 09:52:03;;;;;;;2.55;1.00;;;20.10;67.10;;;;;;5074938;28;20212;-73
2022/09/05 09:55:28;;;;;;;2.92;0.88;;;20.00;66.80;;;;;;5073909;27;20219;-72
2022/09/05 09:58:57;;;;;;;3.75;0.80;;;19.70;67.10;;;;;;5092096;27;20219;-72
2022/09/05 10:01:53;;;;;;;1.95;0.93;;;19.70;67.40;;;;;;5074117;28;20238;-73
2022/09/05 10:05:26;;;;;;;1.17;0.90;;;19.70;67.10;;;;;;5077159;28;20223;-72
2022/09/05 10:08:54;;;;;;;1.50;0.80;;;19.70;67.20;;;;;;5076259;28;20218;-72
2022/09/05 10:12:33;;;;;;;3.22;0.82;;;19.50;66.90;;;;;;5102254;27;20257;-74
2022/09/05 10:15:26;;;;;;;3.78;0.73;;;19.70;67.60;;;;;;5078222;28;20224;-79
2022/09/05 10:18:35;;;;;;;0.73;0.63;;;19.80;67.80;;;;;;5076045;28;20635;-79
2022/09/05 10:21:47;;;;;;;1.85;1.00;;;19.80;67.70;;;;;;5080198;28;20228;-80
2022/09/05 10:25:15;;;;;;;0.63;0.50;;;19.80;66.10;;;;;;5077399;28;20345;-82
2022/09/05 10:28:12;;;;;;;1.60;0.82;;;19.70;67.00;;;;;;5078206;28;20251;-81
2022/09/05 10:31:13;;;;;;;5.30;0.80;;;19.60;67.10;;;;;;5078714;27;20219;-79
2022/09/05 10:34:23;;;;;;;1.95;0.50;;;19.60;67.20;;;;;;5078324;28;20642;-79
2022/09/05 10:37:41;;;;;;;1.35;0.60;;;19.40;67.90;;;;;;5087537;28;20215;-78
2022/09/05 10:40:35;;;;;;;2.85;0.90;;;19.50;68.10;;;;;;5078857;28;20226;-79
2022/09/05 10:43:49;;;;;;;2.78;0.75;;;19.60;68.40;;;;;;5078160;28;20234;-80
2022/09/05 10:46:51;;;;;;;1.35;0.80;;;19.60;67.40;;;;;;5075094;28;20220;-80
2022/09/05 10:49:43;;;;;;;0.90;0.70;;;19.60;66.90;;;;;;5075389;28;20243;-79
2022/09/05 10:52:36;;;;;;;1.05;0.70;;;19.60;66.90;;;;;;5077741;28;20680;-79
2022/09/05 10:55:29;;;;;;;1.25;0.80;;;19.80;66.80;;;;;;5076576;28;20230;-79
2022/09/05 10:58:42;;;;;;;2.58;0.90;;;20.00;67.30;;;;;;5075028;28;20223;-78
2022/09/05 11:02:02;;;;;;;3.00;0.70;;;19.70;66.70;;;;;;5076481;28;20230;-78
2022/09/05 11:05:22;;;;;;;0.77;0.75;;;19.60;65.80;;;;;;5075684;28;20230;-79
2022/09/05 11:08:20;;;;;;;2.45;0.60;;;19.70;66.30;;;;;;5076147;28;20278;-78
2022/09/05 11:11:14;;;;;;;1.55;0.60;;;19.50;66.40;;;;;;5102737;27;20818;-79
2022/09/05 11:14:35;;;;;;;2.28;0.70;;;19.60;66.20;;;;;;5079604;28;20294;-79
2022/09/05 11:17:32;;;;;;;1.80;0.70;;;19.70;66.10;;;;;;5076112;28;20223;-78
2022/09/05 11:20:52;;;;;;;1.35;0.70;;;19.80;65.80;;;;;;5080358;28;20858;-78
2022/09/05 11:23:45;;;;;;;1.50;0.80;;;20.00;66.60;;;;;;5081647;28;20231;-79
2022/09/05 11:26:48;;;;;;;3.47;0.80;;;19.80;67.10;;;;;;5081102;28;20233;-79
2022/09/05 11:30:04;;;;;;;1.27;0.70;;;19.60;67.60;;;;;;5079229;28;20302;-79
2022/09/05 11:33:14;;;;;;;1.27;0.80;;;19.80;67.00;;;;;;5077824;28;20564;-79
2022/09/05 11:36:25;;;;;;;1.40;0.77;;;19.80;67.10;;;;;;5079131;28;20802;-73
2022/09/05 11:40:08;;;;;;;1.10;0.70;;;19.80;66.60;;;;;;5079600;28;20259;-73
2022/09/05 11:43:44;;;;;;;2.78;0.90;;;19.90;66.60;;;;;;5082001;28;20219;-73
2022/09/05 11:46:40;;;;;;;1.98;0.73;;;19.70;67.10;;;;;;5080830;27;20590;-74
2022/09/05 11:49:46;;;;;;;3.67;1.00;;;19.70;66.70;;;;;;5083706;28;20224;-74
2022/09/05 11:53:10;;;;;;;2.03;0.70;;;19.80;67.00;;;;;;5080172;28;20242;-74
2022/09/05 11:56:33;;;;;;;1.80;1.20;;;19.80;67.40;;;;;;5079568;27;20220;-74
2022/09/05 11:59:55;;;;;;;2.47;1.02;;;20.00;65.70;;;;;;5081866;28;20211;-75
2022/09/05 12:03:49;;;;;;;2.05;1.00;;;19.80;66.80;;;;;;5091192;27;20219;-74
2022/09/05 12:07:36;;;;;;;5.47;0.80;;;20.00;66.00;;;;;;5080143;28;20220;-73
2022/09/05 12:10:34;;;;;;;2.13;0.90;;;20.00;66.00;;;;;;5058987;28;20591;-73
2022/09/05 12:13:45;;;;;;;2.15;0.90;;;19.90;67.40;;;;;;5052162;28;20221;-74
2022/09/05 12:16:47;;;;;;;1.33;0.90;;;20.00;67.40;;;;;;5073151;28;20223;-74
2022/09/05 12:19:41;;;;;;;1.45;0.82;;;20.10;67.80;;;;;;5075493;28;20295;-73
2022/09/05 12:22:32;;;;;;;2.67;0.90;;;20.20;67.50;;;;;;5075545;28;20297;-74
2022/09/05 12:25:47;;;;;;;3.63;0.90;;;20.20;68.00;;;;;;5077995;28;20943;-74
2022/09/05 12:28:59;;;;;;;2.15;0.80;;;20.20;65.90;;;;;;5100185;27;20258;-73
2022/09/05 12:32:16;;;;;;;2.45;0.90;;;20.00;66.70;;;;;;5077941;27;20223;-74
2022/09/05 12:35:32;;;;;;;0.82;0.80;;;20.10;66.50;;;;;;5078703;28;20208;-74
2022/09/05 12:38:49;;;;;;;2.95;0.75;;;20.10;66.80;;;;;;5079753;28;20692;-73
2022/09/05 12:42:03;;;;;;;1.55;0.80;;;19.90;66.10;;;;;;5079420;28;20241;-74
2022/09/05 12:45:12;;;;;;;1.30;0.77;;;19.80;66.40;;;;;;5076698;28;20238;-73
2022/09/05 12:48:11;;;;;;;1.17;0.77;;;19.90;66.90;;;;;;5104477;27;20220;-74
2022/09/05 12:51:04;;;;;;;0.75;0.63;;;19.70;65.60;;;;;;5104219;27;20223;-74
2022/09/05 12:53:57;;;;;;;1.92;0.98;;;19.70;65.90;;;;;;5074732;27;20224;-73
2022/09/05 12:56:54;;;;;;;2.08;0.95;;;19.70;64.90;;;;;;5071324;28;20230;-74
2022/09/05 13:00:10;;;;;;;4.95;0.80;;;19.80;65.60;;;;;;5102567;27;20814;-75
2022/09/05 13:03:25;;;;;;;2.88;0.90;;;19.90;65.50;;;;;;5077846;27;20212;-79
2022/09/05 13:06:22;;;;;;;1.90;0.50;;;19.90;65.30;;;;;;5075763;28;20208;-74
2022/09/05 13:09:29;;;;;;;0.80;0.65;;;19.90;66.70;;;;;;5076252;28;20215;-79
2022/09/05 13:12:42;;;;;;;1.80;0.80;;;19.90;67.00;;;;;;5079725;28;20212;-79
2022/09/05 13:15:55;;;;;;;1.00;0.68;;;19.90;67.50;;;;;;5077502;28;20235;-79
2022/09/05 13:18:45;;;;;;;2.22;0.70;;;19.80;67.50;;;;;;5074567;28;20239;-79
2022/09/05 13:21:38;;;;;;;1.33;0.80;;;19.80;68.20;;;;;;5102497;27;20754;-80
2022/09/05 13:24:32;;;;;;;1.95;0.90;;;19.80;68.70;;;;;;5073848;28;20586;-79
2022/09/05 13:27:30;;;;;;;4.30;1.25;;;19.80;68.70;;;;;;5077219;28;20837;-78
2022/09/05 13:30:19;;;;;;;2.00;1.00;;;19.80;69.30;;;;;;5070395;28;20227;-79
2022/09/05 13:33:38;;;;;;;2.13;0.73;;;19.80;68.30;;;;;;5070307;28;20215;-79
2022/09/05 13:36:50;;;;;;;4.00;1.10;;;19.70;68.20;;;;;;5076222;28;20313;-81
2022/09/05 13:40:03;;;;;;;1.02;0.85;;;19.80;68.40;;;;;;5072864;28;20335;-79
2022/09/05 13:43:10;;;;;;;3.80;0.75;;;19.90;67.70;;;;;;5074097;28;20219;-79
2022/09/05 13:46:10;;;;;;;2.80;0.70;;;19.90;67.10;;;;;;5072628;28;20325;-79
2022/09/05 13:49:10;;;;;;;1.85;0.80;;;20.00;68.30;;;;;;5075798;28;20228;-79
2022/09/05 13:52:27;;;;;;;3.63;0.70;;;19.90;68.00;;;;;;5076145;28;20246;-79
2022/09/05 13:55:22;;;;;;;0.80;0.60;;;19.80;67.20;;;;;;5075052;28;20215;-79
2022/09/05 13:58:17;;;;;;;2.53;0.60;;;19.80;68.10;;;;;;5081600;28;20729;-79
2022/09/05 14:01:35;;;;;;;1.27;0.80;;;19.70;67.40;;;;;;5090063;28;20223;-79
2022/09/05 14:05:00;;;;;;;3.95;0.90;;;19.70;67.80;;;;;;5074738;28;20270;-78
2022/09/05 14:08:32;;;;;;;1.13;0.85;;;19.70;68.20;;;;;;5071137;28;20232;-79
2022/09/05 14:11:46;;;;;;;3.58;0.80;;;19.80;68.10;;;;;;5101665;27;20220;-79
2022/09/05 14:14:41;;;;;;;1.15;0.70;;;19.80;69.00;;;;;;5077497;28;20218;-78
2022/09/05 14:18:00;;;;;;;0.77;0.63;;;19.80;69.50;;;;;;5076195;27;20594;-78
2022/09/05 14:21:16;;;;;;;1.58;0.90;;;19.80;69.60;;;;;;5074944;28;20306;-79
2022/09/05 14:24:13;;;;;;;3.75;0.90;;;19.90;69.40;;;;;;5073920;28;20222;-79
2022/09/05 14:27:13;;;;;;;1.83;1.00;;;19.90;68.30;;;;;;5077001;28;20239;-79
2022/09/05 14:30:03;;;;;;;1.65;0.95;;;20.00;68.20;;;;;;5078041;28;20602;-79
2022/09/05 14:33:38;;;;;;;2.05;0.77;;;19.80;68.60;;;;;;5075427;28;20255;-79
2022/09/05 14:36:58;;;;;;;2.35;0.60;;;19.70;69.50;;;;;;5071074;28;20918;-78
2022/09/05 14:40:30;;;;;;;1.27;0.65;;;19.70;68.50;;;;;;5075701;28;20224;-80
2022/09/05 14:43:59;;;;;;;1.00;0.68;;;19.70;68.50;;;;;;5078956;28;20211;-73
2022/09/05 14:47:05;;;;;;;2.05;0.73;;;19.70;69.60;;;;;;5082651;28;20231;-79
2022/09/05 14:50:28;;;;;;;1.60;1.50;;;19.60;68.50;;;;;;5074702;28;20269;-79
2022/09/05 14:53:20;;;;;;;2.55;1.35;;;19.70;69.30;;;;;;5073129;28;20216;-80
2022/09/05 14:56:33;;;;;;;3.45;1.08;;;19.70;69.10;;;;;;5075992;28;20216;-79
2022/09/05 14:59:43;;;;;;;5.63;1.00;;;19.60;70.20;;;;;;5078630;27;20336;-79
2022/09/05 15:02:56;;;;;;;1.70;0.85;;;19.70;70.10;;;;;;5071183;28;20220;-80
2022/09/05 15:05:50;;;;;;;2.72;0.80;;;19.70;70.30;;;;;;5085739;28;20357;-80
2022/09/05 15:08:42;;;;;;;1.13;0.60;;;19.90;70.10;;;;;;5078589;27;20216;-74
2022/09/05 15:11:50;;;;;;;3.10;0.80;;;19.90;70.90;;;;;;5074394;27;20277;-73
2022/09/05 15:15:17;;;;;;;1.92;0.98;;;19.90;71.50;;;;;;5102518;28;20725;-73
2022/09/05 15:18:08;;;;;;;2.70;1.77;;;20.00;70.30;;;;;;5074830;28;20598;-74
2022/09/05 15:21:24;;;;;;;1.65;1.08;;;20.00;69.30;;;;;;5076647;28;20219;-74
2022/09/05 15:24:29;;;;;;;2.38;1.00;;;20.10;69.30;;;;;;5073883;27;20233;-77
2022/09/05 15:27:17;;;;;;;3.65;0.70;;;20.00;69.80;;;;;;5078459;28;20231;-80
2022/09/05 15:30:07;;;;;;;0.88;0.70;;;19.80;69.90;;;;;;5079343;28;20223;-81
2022/09/05 15:33:15;;;;;;;1.45;0.90;;;19.80;70.00;;;;;;5079904;28;20219;-80
2022/09/05 15:36:06;;;;;;;5.20;0.80;;;19.80;70.60;;;;;;5079043;28;20226;-81
2022/09/05 15:38:55;;;;;;;2.22;1.00;;;19.70;70.80;;;;;;5072397;27;20226;-81
2022/09/05 15:41:49;;;;;;;1.65;0.90;;;19.70;70.90;;;;;;5076057;28;20220;-80
2022/09/05 15:44:38;;;;;;;1.52;0.80;;;19.70;70.00;;;;;;5080792;28;20231;-80
2022/09/05 15:48:16;;;;;;;3.60;0.80;;;19.70;70.50;;;;;;5076606;28;20238;-80
2022/09/05 15:51:16;;;;;;;3.67;1.05;;;19.70;70.30;;;;;;5080126;27;20686;-80
2022/09/05 15:54:05;;;;;;;2.28;1.00;;;19.70;70.60;;;;;;5090111;28;20604;-80
2022/09/05 15:57:04;;;;;;;3.55;0.70;;;19.60;71.00;;;;;;5073465;28;20223;-80
2022/09/05 15:59:56;;;;;;;2.67;0.88;;;19.50;71.70;;;;;;5081374;28;20583;-79
2022/09/05 16:02:47;;;;;;;3.15;0.80;;;19.50;71.10;;;;;;5076873;28;20242;-80
2022/09/05 16:05:58;;;;;;;2.42;0.90;;;19.60;70.80;;;;;;5076598;28;20216;-80
2022/09/05 16:09:26;;;;;;;2.70;0.80;;;19.50;71.10;;;;;;5079664;28;20224;-79
2022/09/05 16:12:43;;;;;;;1.75;0.80;;;19.50;70.80;;;;;;5080288;28;20277;-80
2022/09/05 16:15:37;;;;;;;2.70;0.80;;;19.50;70.90;;;;;;5097560;27;20231;-79
2022/09/05 16:18:49;;;;;;;3.50;0.98;;;19.50;71.00;;;;;;5080424;28;20254;-81
2022/09/05 16:22:02;;;;;;;3.67;1.00;;;19.40;71.20;;;;;;5078385;28;20219;-80
2022/09/05 16:25:15;;;;;;;1.92;1.00;;;19.40;71.20;;;;;;5089395;28;20227;-80
2022/09/05 16:28:11;;;;;;;1.40;0.65;;;19.40;70.70;;;;;;5081498;28;20223;-81
2022/09/05 16:31:02;;;;;;;1.58;0.88;;;19.30;71.10;;;;;;5080708;28;20234;-80
2022/09/05 16:33:52;;;;;;;3.03;2.00;;;19.40;72.20;;;;;;5078482;28;20219;-80
2022/09/05 16:36:50;;;;;;;5.10;2.42;;;19.30;72.30;;;;;;5084547;28;20220;-79
2022/09/05 16:40:07;;;;;;;2.60;1.00;;;19.30;72.60;;;;;;5077891;28;20222;-81
2022/09/05 16:43:03;;;;;;;1.73;0.80;;;19.30;72.30;;;;;;5081014;28;20249;-79
2022/09/05 16:45:59;;;;;;;5.25;0.80;;;19.30;72.90;;;;;;5079744;28;20646;-79
2022/09/05 16:48:51;;;;;;;4.20;0.90;;;19.20;73.70;;;;;;5078585;28;20759;-80
2022/09/05 16:51:46;;;;;;;1.52;0.90;;;19.10;73.40;;;;;;5080775;28;20228;-80
2022/09/05 16:54:43;;;;;;;4.05;0.73;;;19.10;73.60;;;;;;5072344;28;20726;-80
2022/09/05 16:57:34;;;;;;;1.17;0.90;;;19.00;73.90;;;;;;5084755;28;20227;-80
2022/09/05 17:00:23;;;;;;;1.38;0.93;;;19.00;73.90;;;;;;5078421;27;20231;-79
2022/09/05 17:03:21;;;;;;;3.65;1.38;;;19.00;74.20;;;;;;5075394;28;20228;-80
2022/09/05 17:06:21;;;;;;;3.00;1.20;;;19.00;73.80;;;;;;5076166;27;20587;-79
2022/09/05 17:09:21;;;;;;;1.65;1.00;;;19.00;74.40;;;;;;5062511;28;20354;-80
2022/09/05 17:12:14;;;;;;;3.10;1.02;;;18.90;75.30;;;;;;5048076;28;20231;-80
2022/09/05 17:15:13;;;;;;;2.38;1.20;;;19.00;74.50;;;;;;5067333;28;20369;-81
2022/09/05 17:18:07;;;;;;;2.03;1.13;;;19.00;75.20;;;;;;5065708;28;20225;-80
2022/09/05 17:21:19;;;;;;;4.20;1.40;;;18.90;75.00;;;;;;5067968;28;20221;-80
2022/09/05 17:24:28;;;;;;;3.55;1.30;;;18.90;75.10;;;;;;5079220;28;20238;-80
2022/09/05 17:27:37;;;;;;;3.90;1.20;;;18.80;75.50;;;;;;5083767;28;20749;-80
2022/09/05 17:31:04;;;;;;;1.10;0.90;;;18.80;76.80;;;;;;5082808;28;20223;-80
2022/09/05 17:34:48;;;;;;;2.70;1.15;;;18.80;76.80;;;;;;5072408;28;20232;-81
2022/09/05 17:38:00;;;;;;;3.35;1.30;;;18.80;76.70;;;;;;5052105;28;20205;-84
2022/09/05 17:41:49;;;;;;;1.58;1.23;;;18.70;77.70;;;;;;5067036;28;20719;-86
2022/09/05 17:44:49;;;;;;;1.35;0.98;;;18.70;78.30;;;;;;5072407;28;20227;-83
2022/09/05 17:47:47;;;;;;;5.00;1.35;;;18.70;77.90;;;;;;5074419;28;20219;-80
2022/09/05 17:50:52;;;;;;;4.90;1.30;;;18.70;79.00;;;;;;5058449;28;20216;-79
2022/09/05 17:54:22;;;;;;;4.25;1.40;;;18.60;78.70;;;;;;5062699;28;20226;-83
2022/09/05 17:57:36;;;;;;;2.90;1.48;;;18.60;79.00;;;;;;5082781;28;20581;-84
2022/09/05 18:01:03;;;;;;;2.15;1.00;;;18.60;80.10;;;;;;5064657;28;20276;-86
2022/09/05 18:03:57;;;;;;;5.63;1.40;;;18.50;80.40;;;;;;5079336;28;20231;-85
2022/09/05 18:07:53;;;;;;;3.35;1.40;;;18.50;80.40;;;;;;5093484;27;20219;-84
2022/09/05 18:11:03;;;;;;;4.78;1.20;;;18.50;80.80;;;;;;5060881;28;20564;-86
2022/09/05 18:14:05;;;;;;;3.80;1.40;;;18.50;81.40;;;;;;5079164;28;20216;-85
2022/09/05 18:16:54;;;;;;;1.70;1.20;;;18.40;81.90;;;;;;5080929;28;20705;-84
2022/09/05 18:20:11;;;;;;;1.60;1.05;;;18.40;82.50;;;;;;5080302;28;20250;-83
2022/09/05 18:23:25;;;;;;;1.60;1.20;;;18.30;83.20;;;;;;5081549;28;20231;-85
2022/09/05 18:26:40;;;;;;;2.85;1.83;;;18.20;83.40;;;;;;5071068;28;20219;-85
2022/09/05 18:29:33;;;;;;;3.22;1.50;;;18.30;83.40;;;;;;5066861;28;20251;-85
2022/09/05 18:32:44;;;;;;;2.80;1.40;;;18.20;84.00;;;;;;5074007;28;20578;-83
2022/09/05 18:35:43;;;;;;;6.25;1.63;;;18.30;84.80;;;;;;5074003;28;20227;-85
2022/09/05 18:38:38;;;;;;;3.03;2.00;;;18.30;84.80;;;;;;5043875;28;20312;-83
2022/09/05 18:41:41;;;;;;;3.55;2.00;;;18.20;86.10;;;;;;5047751;28;20239;-93
2022/09/05 18:44:37;;;;;;;3.17;2.08;;;18.10;85.20;;;;;;5050648;28;20224;-80
2022/09/05 18:47:31;;;;;;;5.60;2.10;;;18.20;86.20;;;;;;5084371;28;20247;-80
2022/09/05 18:50:25;;;;;;;5.75;1.98;;;18.10;86.00;;;;;;5070588;28;20219;-81
2022/09/05 18:53:23;;;;;;;3.22;1.90;;;18.00;85.70;;;;;;5076029;28;20812;-80
2022/09/05 18:56:24;;;;;;;10.55;2.33;;;18.00;85.80;;;;;;5077774;27;20230;-80
2022/09/05 18:59:22;;;;;;;8.48;2.30;;;17.90;86.10;;;;;;5089349;27;20320;-80
2022/09/05 19:02:22;;;;;;;7.32;2.17;;;17.90;87.10;;;;;;5073590;28;20934;-79
2022/09/05 19:05:39;;;;;;;4.95;1.80;;;17.80;86.80;;;;;;5096604;27;20227;-83
2022/09/05 19:08:31;;;;;;;4.70;2.00;;;17.70;86.80;;;;;;5075200;27;20629;-83
2022/09/05 19:11:25;;;;;;;5.03;2.22;;;17.70;87.10;;;;;;5079870;27;20267;-83
2022/09/05 19:14:31;;;;;;;5.78;2.10;;;17.70;87.80;;;;;;5079515;28;20223;-83
2022/09/05 19:17:25;;;;;;;6.80;2.53;;;17.70;87.40;;;;;;5083129;28;20215;-82